createdAt,value
2017-04-06T00:00:04.362Z,14.47
2017-04-06T00:01:03.521Z,17.00
2017-04-06T00:02:02.865Z,23.17
2017-04-06T00:03:02.022Z,19.98
2017-04-06T00:04:01.161Z,25.45
2017-04-06T00:05:01.030Z,23.47
2017-04-06T00:06:00.179Z,20.60
2017-04-06T00:06:59.317Z,10.97
2017-04-06T00:07:58.812Z,22.75
2017-04-06T00:08:57.941Z,16.92
2017-04-06T00:09:57.176Z,29.57
2017-04-06T00:10:56.335Z,29.18
2017-04-06T00:11:55.489Z,20.05
2017-04-06T00:12:55.469Z,29.23
2017-04-06T00:13:55.005Z,18.83
2017-04-06T00:14:54.882Z,21.38
2017-04-06T00:15:54.013Z,15.87
2017-04-06T00:16:53.141Z,24.25
2017-04-06T00:17:52.272Z,27.93
2017-04-06T00:18:51.397Z,19.75
2017-04-06T00:19:50.569Z,21.92
2017-04-06T00:20:49.714Z,20.93
2017-04-06T00:21:49.622Z,27.38
2017-04-06T00:22:49.528Z,23.22
2017-04-06T00:23:49.400Z,16.85
2017-04-06T00:24:48.549Z,18.97
2017-04-06T00:25:47.714Z,21.77
2017-04-06T00:26:47.605Z,19.30
2017-04-06T00:27:47.497Z,15.55
2017-04-06T00:28:46.629Z,23.30
2017-04-06T00:29:45.801Z,22.18
2017-04-06T00:30:44.918Z,23.65
2017-04-06T00:31:44.241Z,21.58
2017-04-06T00:32:43.409Z,19.00
2017-04-06T00:33:42.549Z,18.20
2017-04-06T00:34:41.681Z,26.73
2017-04-06T00:35:40.853Z,26.37
2017-04-06T00:36:39.997Z,13.92
2017-04-06T00:37:40.081Z,22.43
2017-04-06T00:38:39.209Z,16.27
2017-04-06T00:39:38.347Z,21.00
2017-04-06T00:40:37.470Z,22.15
2017-04-06T00:41:37.337Z,17.03
2017-04-06T00:42:36.461Z,16.07
2017-04-06T00:43:35.700Z,25.70
2017-04-06T00:44:34.829Z,22.05
2017-04-06T00:45:34.721Z,22.02
2017-04-06T00:46:33.937Z,22.47
2017-04-06T00:47:33.105Z,20.08
2017-04-06T00:48:33.337Z,19.45
2017-04-06T00:49:32.524Z,25.42
2017-04-06T00:50:31.662Z,24.87
2017-04-06T00:51:30.785Z,27.17
2017-04-06T00:52:30.679Z,20.17
2017-04-06T00:53:30.593Z,21.90
2017-04-06T00:54:30.549Z,20.12
2017-04-06T00:55:29.725Z,27.07
2017-04-06T00:56:28.861Z,19.00
2017-04-06T00:57:28.017Z,19.55
2017-04-06T00:58:27.133Z,27.77
2017-04-06T00:59:26.257Z,20.58
2017-04-06T01:00:25.441Z,23.63
2017-04-06T01:01:24.574Z,25.37
2017-04-06T01:02:23.921Z,20.95
2017-04-06T01:03:23.045Z,24.25
2017-04-06T01:04:22.197Z,24.53
2017-04-06T01:05:21.697Z,22.95
2017-04-06T01:06:20.949Z,20.18
2017-04-06T01:07:20.821Z,27.42
2017-04-06T01:08:19.945Z,18.65
2017-04-06T01:09:19.833Z,18.73
2017-04-06T01:10:19.288Z,25.67
2017-04-06T01:11:18.425Z,26.55
2017-04-06T01:12:18.341Z,23.50
2017-04-06T01:13:18.217Z,23.48
2017-04-06T01:14:17.361Z,22.87
2017-04-06T01:15:16.497Z,27.53
2017-04-06T01:16:15.629Z,19.28
2017-04-06T01:17:14.834Z,18.80
2017-04-06T01:18:14.281Z,18.83
2017-04-06T01:19:14.270Z,21.03
2017-04-06T01:20:14.166Z,18.95
2017-04-06T01:21:13.287Z,25.58
2017-04-06T01:22:13.167Z,24.42
2017-04-06T01:23:12.584Z,25.17
2017-04-06T01:24:12.465Z,16.48
2017-04-06T01:25:11.625Z,23.12
2017-04-06T01:26:10.743Z,19.35
2017-04-06T01:27:10.617Z,18.88
2017-04-06T01:28:09.773Z,18.65
2017-04-06T01:29:08.901Z,20.12
2017-04-06T01:30:08.069Z,23.32
2017-04-06T01:31:07.189Z,18.93
2017-04-06T01:32:06.313Z,20.53
2017-04-06T01:33:05.411Z,22.35
2017-04-06T01:34:04.571Z,11.98
2017-04-06T01:35:04.424Z,15.33
2017-04-06T01:36:03.523Z,15.17
2017-04-06T01:37:02.636Z,19.13
2017-04-06T01:38:02.479Z,15.12
2017-04-06T01:39:01.584Z,17.63
2017-04-06T01:40:00.751Z,30.73
2017-04-06T01:40:59.851Z,22.18
2017-04-06T01:41:58.948Z,20.93
2017-04-06T01:42:58.046Z,23.12
2017-04-06T01:43:57.144Z,18.78
2017-04-06T01:44:56.253Z,20.83
2017-04-06T01:45:56.156Z,20.17
2017-04-06T01:46:56.011Z,25.57
2017-04-06T01:47:55.155Z,17.95
2017-04-06T01:48:54.334Z,20.25
2017-04-06T01:49:54.179Z,21.98
2017-04-06T01:50:53.268Z,22.65
2017-04-06T01:51:52.415Z,26.68
2017-04-06T01:52:51.524Z,25.48
2017-04-06T01:53:50.624Z,18.40
2017-04-06T01:54:49.717Z,21.95
2017-04-06T01:55:48.808Z,24.52
2017-04-06T01:56:47.899Z,20.30
2017-04-06T01:57:47.380Z,25.98
2017-04-06T01:58:46.471Z,24.65
2017-04-06T01:59:45.560Z,25.62
2017-04-06T02:00:44.744Z,22.08
2017-04-06T02:01:43.851Z,13.00
2017-04-06T02:02:42.967Z,22.55
2017-04-06T02:03:42.087Z,17.93
2017-04-06T02:04:41.176Z,14.02
2017-04-06T02:05:40.283Z,25.18
2017-04-06T02:06:39.403Z,19.17
2017-04-06T02:07:39.420Z,23.02
2017-04-06T02:08:38.522Z,25.05
2017-04-06T02:09:37.649Z,25.33
2017-04-06T02:10:36.745Z,16.85
2017-04-06T02:11:35.852Z,22.58
2017-04-06T02:12:35.704Z,21.42
2017-04-06T02:13:34.843Z,23.30
2017-04-06T02:14:33.930Z,24.67
2017-04-06T02:15:33.803Z,18.87
2017-04-06T02:16:32.899Z,24.85
2017-04-06T02:17:32.020Z,17.67
2017-04-06T02:18:31.131Z,20.12
2017-04-06T02:19:30.535Z,23.15
2017-04-06T02:20:29.639Z,24.93
2017-04-06T02:21:28.740Z,12.30
2017-04-06T02:22:28.583Z,20.97
2017-04-06T02:23:27.679Z,18.87
2017-04-06T02:24:26.778Z,23.42
2017-04-06T02:25:26.232Z,19.33
2017-04-06T02:26:25.339Z,20.43
2017-04-06T02:27:24.459Z,23.40
2017-04-06T02:28:24.095Z,25.20
2017-04-06T02:29:23.938Z,22.82
2017-04-06T02:30:23.048Z,26.82
2017-04-06T02:31:22.195Z,20.18
2017-04-06T02:32:22.196Z,16.88
2017-04-06T02:33:21.360Z,20.90
2017-04-06T02:34:21.232Z,28.45
2017-04-06T02:35:20.364Z,30.35
2017-04-06T02:36:19.495Z,22.13
2017-04-06T02:37:18.669Z,20.82
2017-04-06T02:38:17.803Z,17.25
2017-04-06T02:39:17.711Z,20.02
2017-04-06T02:40:17.608Z,26.18
2017-04-06T02:41:16.727Z,17.43
2017-04-06T02:42:15.868Z,15.72
2017-04-06T02:43:15.347Z,21.30
2017-04-06T02:44:14.468Z,30.80
2017-04-06T02:45:14.364Z,25.28
2017-04-06T02:46:13.507Z,16.63
2017-04-06T02:47:12.635Z,23.32
2017-04-06T02:48:11.805Z,20.53
2017-04-06T02:49:10.935Z,22.48
2017-04-06T02:50:10.840Z,21.20
2017-04-06T02:51:10.717Z,21.62
2017-04-06T02:52:09.851Z,18.20
2017-04-06T02:53:08.987Z,26.18
2017-04-06T02:54:08.139Z,20.88
2017-04-06T02:55:07.279Z,18.72
2017-04-06T02:56:06.387Z,20.42
2017-04-06T02:57:05.511Z,19.05
2017-04-06T02:58:04.659Z,20.65
2017-04-06T02:59:03.800Z,28.02
2017-04-06T03:00:03.383Z,18.87
2017-04-06T03:01:02.524Z,14.83
2017-04-06T03:02:01.647Z,18.98
2017-04-06T03:03:00.772Z,20.62
2017-04-06T03:03:59.919Z,21.60
2017-04-06T03:04:59.051Z,23.75
2017-04-06T03:05:58.951Z,28.95
2017-04-06T03:06:58.831Z,26.08
2017-04-06T03:07:57.987Z,24.38
2017-04-06T03:08:57.127Z,18.52
2017-04-06T03:09:56.311Z,23.43
2017-04-06T03:10:55.903Z,27.22
2017-04-06T03:11:55.024Z,19.50
2017-04-06T03:12:54.167Z,20.50
2017-04-06T03:13:53.626Z,21.10
2017-04-06T03:14:52.764Z,21.02
2017-04-06T03:15:51.921Z,24.47
2017-04-06T03:16:51.624Z,21.03
2017-04-06T03:17:50.743Z,20.95
2017-04-06T03:18:50.687Z,20.67
2017-04-06T03:19:49.824Z,23.90
2017-04-06T03:20:48.940Z,22.42
2017-04-06T03:21:48.836Z,20.60
2017-04-06T03:22:48.759Z,27.83
2017-04-06T03:23:47.878Z,19.50
2017-04-06T03:24:47.043Z,26.42
2017-04-06T03:25:46.172Z,21.27
2017-04-06T03:26:45.300Z,26.08
2017-04-06T03:27:44.443Z,23.82
2017-04-06T03:28:43.719Z,28.48
2017-04-06T03:29:42.831Z,28.17
2017-04-06T03:30:41.939Z,27.18
2017-04-06T03:31:41.057Z,22.80
2017-04-06T03:32:40.194Z,15.62
2017-04-06T03:33:39.304Z,23.30
2017-04-06T03:34:38.644Z,28.63
2017-04-06T03:35:37.775Z,22.50
2017-04-06T03:36:37.640Z,20.82
2017-04-06T03:37:36.768Z,21.53
2017-04-06T03:38:36.640Z,22.80
2017-04-06T03:39:35.791Z,21.35
2017-04-06T03:40:34.963Z,31.37
2017-04-06T03:41:34.100Z,19.95
2017-04-06T03:42:33.567Z,25.55
2017-04-06T03:43:32.747Z,20.50
2017-04-06T03:44:31.867Z,30.18
2017-04-06T03:45:30.995Z,30.17
2017-04-06T03:46:30.304Z,17.52
2017-04-06T03:47:29.432Z,25.92
2017-04-06T03:48:28.626Z,23.08
2017-04-06T03:49:27.807Z,19.40
2017-04-06T03:50:26.952Z,24.73
2017-04-06T03:51:26.100Z,25.15
2017-04-06T03:52:26.019Z,25.43
2017-04-06T03:53:25.903Z,20.43
2017-04-06T03:54:25.802Z,21.98
2017-04-06T03:55:24.915Z,26.12
2017-04-06T03:56:24.027Z,23.85
2017-04-06T03:57:23.159Z,14.43
2017-04-06T03:58:22.527Z,32.43
2017-04-06T03:59:21.648Z,19.17
2017-04-06T04:00:21.594Z,24.97
2017-04-06T04:01:20.860Z,24.53
2017-04-06T04:02:20.883Z,23.90
2017-04-06T04:03:20.023Z,23.48
2017-04-06T04:04:19.211Z,22.12
2017-04-06T04:05:18.375Z,31.20
2017-04-06T04:06:17.532Z,20.77
2017-04-06T04:07:16.756Z,24.08
2017-04-06T04:08:15.886Z,22.33
2017-04-06T04:09:15.915Z,27.35
2017-04-06T04:10:15.339Z,24.78
2017-04-06T04:11:14.458Z,24.13
2017-04-06T04:12:14.331Z,24.63
2017-04-06T04:13:13.459Z,23.73
2017-04-06T04:14:13.335Z,19.50
2017-04-06T04:15:12.496Z,19.23
2017-04-06T04:16:11.712Z,30.42
2017-04-06T04:17:10.889Z,24.57
2017-04-06T04:18:10.015Z,24.28
2017-04-06T04:19:09.891Z,23.58
2017-04-06T04:20:09.035Z,27.67
2017-04-06T04:21:08.176Z,22.30
2017-04-06T04:22:08.099Z,22.03
2017-04-06T04:23:07.979Z,21.57
2017-04-06T04:24:07.113Z,24.30
2017-04-06T04:25:06.235Z,22.07
2017-04-06T04:26:05.612Z,26.78
2017-04-06T04:27:04.748Z,23.40
2017-04-06T04:28:04.921Z,17.83
2017-04-06T04:29:04.064Z,29.73
2017-04-06T04:30:03.201Z,21.27
2017-04-06T04:31:02.346Z,22.75
2017-04-06T04:32:01.475Z,26.30
2017-04-06T04:33:00.608Z,29.73
2017-04-06T04:33:59.783Z,27.08
2017-04-06T04:34:59.660Z,20.75
2017-04-06T04:35:58.796Z,32.62
2017-04-06T04:36:57.956Z,25.60
2017-04-06T04:37:57.831Z,17.52
2017-04-06T04:38:56.943Z,23.48
2017-04-06T04:39:56.877Z,29.38
2017-04-06T04:40:56.012Z,24.50
2017-04-06T04:41:55.151Z,24.42
2017-04-06T04:42:54.292Z,29.80
2017-04-06T04:43:53.436Z,22.67
2017-04-06T04:44:52.583Z,20.30
2017-04-06T04:45:52.503Z,31.82
2017-04-06T04:46:52.371Z,25.17
2017-04-06T04:47:51.495Z,27.17
2017-04-06T04:48:51.367Z,22.38
2017-04-06T04:49:50.495Z,28.35
2017-04-06T04:50:49.730Z,22.63
2017-04-06T04:51:48.912Z,39.28
2017-04-06T04:52:48.031Z,37.48
2017-04-06T04:53:47.908Z,41.10
2017-04-06T04:54:47.078Z,34.72
2017-04-06T04:55:46.207Z,24.85
2017-04-06T04:56:46.080Z,29.05
2017-04-06T04:57:45.255Z,32.12
2017-04-06T04:58:44.399Z,28.30
2017-04-06T04:59:44.267Z,25.02
2017-04-06T05:00:43.403Z,32.73
2017-04-06T05:01:42.535Z,27.05
2017-04-06T05:02:41.675Z,24.75
2017-04-06T05:03:40.855Z,29.98
2017-04-06T05:04:40.716Z,25.87
2017-04-06T05:05:39.839Z,34.58
2017-04-06T05:06:39.719Z,22.78
2017-04-06T05:07:38.848Z,23.07
2017-04-06T05:08:38.055Z,25.83
2017-04-06T05:09:37.672Z,24.40
2017-04-06T05:10:36.814Z,26.83
2017-04-06T05:11:36.036Z,24.55
2017-04-06T05:12:35.171Z,27.75
2017-04-06T05:13:35.055Z,22.67
2017-04-06T05:14:34.193Z,20.38
2017-04-06T05:15:33.512Z,24.63
2017-04-06T05:16:32.648Z,29.87
2017-04-06T05:17:32.524Z,22.05
2017-04-06T05:18:31.660Z,28.37
2017-04-06T05:19:30.793Z,21.72
2017-04-06T05:20:29.960Z,22.15
2017-04-06T05:21:29.231Z,25.62
2017-04-06T05:22:28.384Z,27.28
2017-04-06T05:23:28.261Z,24.52
2017-04-06T05:24:27.444Z,23.73
2017-04-06T05:25:26.610Z,29.40
2017-04-06T05:26:25.773Z,33.35
2017-04-06T05:27:24.928Z,24.33
2017-04-06T05:28:24.816Z,29.65
2017-04-06T05:29:23.923Z,22.65
2017-04-06T05:30:23.773Z,22.17
2017-04-06T05:31:22.891Z,24.42
2017-04-06T05:32:22.007Z,28.50
2017-04-06T05:33:21.992Z,24.33
2017-04-06T05:34:21.859Z,24.92
2017-04-06T05:35:20.960Z,21.42
2017-04-06T05:36:20.097Z,25.95
2017-04-06T05:37:19.195Z,20.83
2017-04-06T05:38:18.287Z,29.18
2017-04-06T05:39:17.635Z,25.30
2017-04-06T05:40:16.812Z,24.62
2017-04-06T05:41:15.956Z,21.12
2017-04-06T05:42:15.087Z,22.75
2017-04-06T05:43:14.233Z,15.93
2017-04-06T05:44:13.363Z,25.25
2017-04-06T05:45:12.532Z,26.45
2017-04-06T05:46:11.727Z,23.70
2017-04-06T05:47:10.869Z,21.60
2017-04-06T05:48:10.040Z,26.30
2017-04-06T05:49:09.923Z,23.62
2017-04-06T05:50:09.807Z,21.07
2017-04-06T05:51:08.983Z,26.62
2017-04-06T05:52:08.103Z,21.10
2017-04-06T05:53:08.011Z,26.73
2017-04-06T05:54:07.880Z,32.08
2017-04-06T05:55:07.056Z,16.70
2017-04-06T05:56:06.223Z,32.82
2017-04-06T05:57:05.420Z,26.52
2017-04-06T05:58:04.603Z,28.00
2017-04-06T05:59:03.735Z,27.15
2017-04-06T06:00:02.883Z,20.73
2017-04-06T06:01:02.049Z,31.22
2017-04-06T06:02:01.188Z,21.88
2017-04-06T06:03:00.363Z,25.15
2017-04-06T06:03:59.510Z,25.67
2017-04-06T06:04:58.668Z,28.10
2017-04-06T06:05:58.563Z,25.13
2017-04-06T06:06:57.720Z,28.85
2017-04-06T06:07:56.843Z,23.08
2017-04-06T06:08:56.363Z,26.87
2017-04-06T06:09:56.239Z,26.03
2017-04-06T06:10:55.688Z,25.17
2017-04-06T06:11:54.823Z,24.47
2017-04-06T06:12:53.959Z,21.00
2017-04-06T06:13:53.111Z,18.93
2017-04-06T06:14:53.383Z,30.43
2017-04-06T06:15:52.544Z,36.52
2017-04-06T06:16:51.676Z,23.47
2017-04-06T06:17:50.842Z,23.25
2017-04-06T06:18:49.975Z,29.55
2017-04-06T06:19:49.871Z,27.02
2017-04-06T06:20:50.263Z,23.93
2017-04-06T06:21:49.406Z,32.28
2017-04-06T06:22:48.579Z,25.98
2017-04-06T06:23:47.715Z,21.63
2017-04-06T06:24:46.851Z,21.28
2017-04-06T06:25:46.749Z,28.97
2017-04-06T06:26:45.201Z,23.05
2017-04-06T06:27:44.674Z,22.60
2017-04-06T06:28:43.868Z,27.97
2017-04-06T06:29:43.000Z,24.15
2017-04-06T06:30:42.888Z,17.98
2017-04-06T06:31:42.756Z,28.08
2017-04-06T06:32:41.937Z,19.95
2017-04-06T06:33:41.076Z,21.82
2017-04-06T06:34:40.987Z,25.62
2017-04-06T06:35:40.111Z,20.35
2017-04-06T06:36:39.260Z,17.78
2017-04-06T06:37:38.591Z,25.22
2017-04-06T06:38:37.881Z,25.62
2017-04-06T06:39:37.032Z,18.63
2017-04-06T06:40:36.152Z,26.15
2017-04-06T06:41:35.275Z,21.23
2017-04-06T06:42:35.359Z,28.73
2017-04-06T06:43:34.491Z,25.02
2017-04-06T06:44:34.396Z,17.83
2017-04-06T06:45:33.627Z,21.28
2017-04-06T06:46:32.753Z,22.58
2017-04-06T06:47:32.884Z,18.33
2017-04-06T06:48:32.935Z,13.52
2017-04-06T06:49:32.071Z,23.53
2017-04-06T06:50:31.943Z,21.70
2017-04-06T06:51:31.067Z,19.03
2017-04-06T06:52:30.263Z,25.03
2017-04-06T06:53:29.427Z,21.67
2017-04-06T06:54:29.368Z,20.38
2017-04-06T06:55:28.520Z,27.97
2017-04-06T06:56:28.435Z,19.30
2017-04-06T06:57:28.307Z,19.67
2017-04-06T06:58:27.447Z,17.97
2017-04-06T06:59:26.576Z,22.33
2017-04-06T07:00:26.167Z,19.88
2017-04-06T07:01:26.399Z,25.67
2017-04-06T07:02:27.018Z,16.87
2017-04-06T07:03:33.419Z,17.40
2017-04-06T07:04:33.879Z,16.50
2017-04-06T07:05:34.597Z,21.77
2017-04-06T07:06:34.413Z,17.27
2017-04-06T07:07:35.272Z,22.28
2017-04-06T07:08:35.490Z,20.60
2017-04-06T07:09:35.700Z,17.22
2017-04-06T07:10:35.478Z,24.30
2017-04-06T07:11:36.073Z,18.68
2017-04-06T07:12:36.003Z,19.52
2017-04-06T07:13:36.926Z,20.60
2017-04-06T07:14:37.812Z,15.97
2017-04-06T07:15:37.980Z,20.47
2017-04-06T07:16:37.642Z,17.48
2017-04-06T07:17:37.360Z,15.27
2017-04-06T07:18:37.771Z,17.50
2017-04-06T07:19:38.177Z,17.08
2017-04-06T07:20:38.144Z,24.37
2017-04-06T07:21:37.857Z,15.87
2017-04-06T07:22:37.639Z,17.28
2017-04-06T07:23:37.358Z,17.57
2017-04-06T07:24:37.581Z,19.02
2017-04-06T07:25:37.296Z,18.33
2017-04-06T07:26:37.419Z,16.85
2017-04-06T07:27:37.139Z,14.75
2017-04-06T07:28:36.892Z,20.37
2017-04-06T07:29:36.942Z,21.10
2017-04-06T07:30:36.925Z,13.65
2017-04-06T07:31:37.916Z,20.40
2017-04-06T07:32:38.121Z,20.18
2017-04-06T07:33:38.257Z,18.90
2017-04-06T07:34:38.383Z,16.40
2017-04-06T07:35:39.133Z,20.22
2017-04-06T07:36:38.308Z,11.42
2017-04-06T07:37:37.502Z,23.00
2017-04-06T07:38:37.539Z,23.50
2017-04-06T07:39:37.403Z,17.60
2017-04-06T07:40:36.963Z,18.25
2017-04-06T07:41:36.083Z,24.72
2017-04-06T07:42:35.315Z,23.73
2017-04-06T07:43:34.504Z,14.25
2017-04-06T07:44:33.642Z,20.90
2017-04-06T07:45:32.771Z,19.05
2017-04-06T07:46:32.675Z,21.77
2017-04-06T07:47:32.549Z,19.65
2017-04-06T07:48:31.680Z,18.53
2017-04-06T07:49:30.888Z,14.33
2017-04-06T07:50:30.503Z,16.77
2017-04-06T07:51:29.651Z,20.33
2017-04-06T07:52:28.780Z,15.38
2017-04-06T07:53:27.912Z,14.50
2017-04-06T07:54:27.339Z,15.90
2017-04-06T07:55:26.567Z,28.38
2017-04-06T07:56:25.691Z,18.08
2017-04-06T07:57:24.820Z,16.07
2017-04-06T07:58:23.964Z,10.43
2017-04-06T07:59:23.116Z,21.10
2017-04-06T08:00:22.684Z,14.57
2017-04-06T08:01:21.871Z,14.85
2017-04-06T08:02:21.095Z,16.42
2017-04-06T08:03:20.275Z,20.58
2017-04-06T08:04:19.419Z,14.67
2017-04-06T08:05:18.689Z,18.70
2017-04-06T08:06:18.161Z,13.65
2017-04-06T08:07:18.831Z,17.58
2017-04-06T08:08:18.362Z,24.53
2017-04-06T08:09:18.267Z,20.80
2017-04-06T08:10:17.444Z,24.23
2017-04-06T08:11:16.611Z,18.45
2017-04-06T08:12:15.841Z,20.20
2017-04-06T08:13:15.795Z,17.50
2017-04-06T08:14:14.931Z,18.48
2017-04-06T08:15:14.132Z,13.05
2017-04-06T08:16:14.069Z,11.82
2017-04-06T08:17:13.210Z,17.75
2017-04-06T08:18:12.335Z,20.27
2017-04-06T08:19:11.952Z,18.42
2017-04-06T08:20:11.148Z,16.95
2017-04-06T08:21:10.404Z,13.10
2017-04-06T08:22:09.900Z,18.02
2017-04-06T08:23:09.019Z,18.00
2017-04-06T08:24:08.159Z,17.13
2017-04-06T08:25:07.648Z,15.47
2017-04-06T08:26:06.850Z,9.73
2017-04-06T08:27:06.033Z,15.97
2017-04-06T08:28:05.912Z,11.88
2017-04-06T08:29:05.044Z,13.68
2017-04-06T08:30:04.377Z,10.88
2017-04-06T08:31:03.552Z,14.37
2017-04-06T08:32:02.675Z,14.82
2017-04-06T08:33:01.915Z,13.35
2017-04-06T08:34:01.155Z,13.85
2017-04-06T08:35:01.023Z,20.55
2017-04-06T08:36:00.163Z,12.27
2017-04-06T08:37:00.079Z,15.40
2017-04-06T08:37:59.375Z,16.73
2017-04-06T08:38:58.516Z,18.32
2017-04-06T08:39:57.642Z,22.43
2017-04-06T08:40:56.767Z,14.82
2017-04-06T08:41:55.928Z,15.67
2017-04-06T08:42:55.159Z,13.90
2017-04-06T08:43:54.364Z,20.37
2017-04-06T08:44:54.223Z,13.30
2017-04-06T08:45:53.380Z,16.15
2017-04-06T08:46:52.587Z,15.97
2017-04-06T08:47:51.791Z,11.80
2017-04-06T08:48:50.959Z,14.87
2017-04-06T08:49:50.100Z,13.18
2017-04-06T08:50:49.963Z,12.70
2017-04-06T08:51:49.150Z,12.92
2017-04-06T08:52:49.023Z,14.62
2017-04-06T08:53:48.166Z,11.30
2017-04-06T08:54:47.825Z,12.88
2017-04-06T08:55:46.973Z,10.63
2017-04-06T08:56:46.847Z,6.78
2017-04-06T08:57:45.971Z,7.97
2017-04-06T08:58:45.220Z,10.97
2017-04-06T08:59:44.344Z,4.42
2017-04-06T09:00:44.272Z,9.38
2017-04-06T09:01:43.483Z,9.33
2017-04-06T09:02:42.616Z,6.83
2017-04-06T09:03:41.780Z,7.57
2017-04-06T09:04:40.918Z,6.82
2017-04-06T09:05:40.058Z,10.30
2017-04-06T09:06:39.267Z,9.20
2017-04-06T09:07:39.151Z,12.85
2017-04-06T09:08:38.286Z,4.70
2017-04-06T09:09:37.784Z,11.47
2017-04-06T09:10:36.967Z,5.97
2017-04-06T09:11:36.136Z,8.48
2017-04-06T09:12:36.117Z,9.82
2017-04-06T09:13:35.254Z,13.48
2017-04-06T09:14:34.381Z,9.27
2017-04-06T09:15:34.336Z,4.78
2017-04-06T09:16:33.480Z,6.78
2017-04-06T09:17:32.607Z,5.60
2017-04-06T09:18:31.783Z,7.72
2017-04-06T09:19:30.928Z,5.02
2017-04-06T09:20:30.124Z,8.82
2017-04-06T09:21:29.282Z,7.85
2017-04-06T09:22:28.469Z,7.10
2017-04-06T09:23:27.599Z,5.92
2017-04-06T09:24:26.800Z,6.23
2017-04-06T09:25:27.364Z,8.88
2017-04-06T09:26:26.495Z,4.52
2017-04-06T09:27:26.363Z,10.75
2017-04-06T09:28:25.771Z,8.67
2017-04-06T09:29:24.904Z,4.60
2017-04-06T09:30:24.435Z,10.33
2017-04-06T09:31:23.589Z,5.78
2017-04-06T09:32:22.872Z,8.57
2017-04-06T09:33:22.821Z,6.48
2017-04-06T09:34:22.216Z,8.27
2017-04-06T09:35:21.391Z,9.07
2017-04-06T09:36:20.581Z,8.72
2017-04-06T09:37:19.727Z,7.62
2017-04-06T09:38:19.672Z,5.78
2017-04-06T09:39:18.812Z,4.30
2017-04-06T09:40:18.704Z,7.17
2017-04-06T09:41:17.852Z,6.45
2017-04-06T09:42:17.070Z,8.18
2017-04-06T09:43:16.252Z,10.33
2017-04-06T09:44:15.379Z,8.88
2017-04-06T09:45:15.311Z,5.75
2017-04-06T09:46:14.492Z,6.85
2017-04-06T09:47:13.719Z,6.87
2017-04-06T09:48:12.914Z,5.18
2017-04-06T09:49:12.063Z,8.90
2017-04-06T09:50:11.852Z,8.32
2017-04-06T09:51:11.035Z,11.72
2017-04-06T09:52:10.215Z,8.28
2017-04-06T09:53:09.354Z,11.47
2017-04-06T09:54:08.535Z,11.45
2017-04-06T09:55:07.688Z,9.82
2017-04-06T09:56:06.876Z,4.58
2017-04-06T09:57:06.060Z,7.73
2017-04-06T09:58:05.268Z,12.02
2017-04-06T09:59:04.412Z,10.42
2017-04-06T10:00:04.519Z,6.95
2017-04-06T10:01:04.413Z,8.17
2017-04-06T10:02:03.557Z,8.47
2017-04-06T10:03:02.697Z,8.07
2017-04-06T10:04:02.604Z,5.62
2017-04-06T10:05:02.547Z,10.13
2017-04-06T10:06:01.712Z,7.67
2017-04-06T10:07:00.834Z,5.63
2017-04-06T10:07:59.983Z,6.87
2017-04-06T10:08:59.147Z,9.23
2017-04-06T10:09:59.032Z,12.65
2017-04-06T10:10:58.159Z,7.78
2017-04-06T10:11:57.356Z,8.88
2017-04-06T10:12:56.519Z,12.93
2017-04-06T10:13:55.675Z,10.40
2017-04-06T10:14:54.811Z,9.20
2017-04-06T10:15:54.039Z,7.82
2017-04-06T10:16:53.264Z,5.25
2017-04-06T10:17:52.855Z,11.42
2017-04-06T10:18:52.803Z,9.78
2017-04-06T10:19:51.979Z,9.08
2017-04-06T10:20:51.823Z,15.43
2017-04-06T10:21:51.084Z,11.20
2017-04-06T10:22:50.296Z,7.92
2017-04-06T10:23:49.964Z,10.60
2017-04-06T10:24:49.092Z,5.73
2017-04-06T10:25:48.220Z,8.57
2017-04-06T10:26:47.461Z,6.92
2017-04-06T10:27:46.592Z,4.78
2017-04-06T10:28:45.741Z,10.65
2017-04-06T10:29:44.907Z,11.17
2017-04-06T10:30:44.076Z,6.32
2017-04-06T10:31:43.211Z,5.13
2017-04-06T10:32:42.343Z,8.93
2017-04-06T10:33:42.097Z,9.45
2017-04-06T10:34:41.276Z,9.88
2017-04-06T10:35:40.387Z,10.10
2017-04-06T10:36:40.252Z,11.45
2017-04-06T10:37:39.375Z,10.30
2017-04-06T10:38:38.507Z,15.30
2017-04-06T10:39:38.047Z,15.50
2017-04-06T10:40:37.152Z,9.85
2017-04-06T10:41:37.012Z,7.62
2017-04-06T10:42:36.132Z,6.32
2017-04-06T10:43:35.279Z,11.47
2017-04-06T10:44:34.387Z,9.17
2017-04-06T10:45:33.940Z,9.35
2017-04-06T10:46:33.496Z,6.52
2017-04-06T10:47:32.618Z,10.58
2017-04-06T10:48:31.827Z,8.83
2017-04-06T10:49:31.096Z,9.32
2017-04-06T10:50:30.208Z,7.67
2017-04-06T10:51:29.706Z,10.90
2017-04-06T10:52:28.815Z,6.82
2017-04-06T10:53:27.912Z,8.57
2017-04-06T10:54:27.015Z,10.12
2017-04-06T10:55:26.860Z,8.68
2017-04-06T10:56:26.029Z,7.82
2017-04-06T10:57:25.164Z,8.20
2017-04-06T10:58:24.263Z,10.58
2017-04-06T10:59:23.375Z,5.23
2017-04-06T11:00:22.548Z,9.82
2017-04-06T11:01:22.469Z,8.78
2017-04-06T11:02:21.731Z,8.42
2017-04-06T11:03:21.051Z,11.62
2017-04-06T11:04:20.180Z,12.10
2017-04-06T11:05:19.300Z,10.02
2017-04-06T11:06:18.719Z,11.93
2017-04-06T11:07:17.845Z,9.53
2017-04-06T11:08:16.961Z,9.55
2017-04-06T11:09:16.442Z,14.35
2017-04-06T11:10:15.572Z,7.85
2017-04-06T11:11:14.680Z,7.52
2017-04-06T11:12:13.811Z,12.53
2017-04-06T11:13:13.035Z,11.05
2017-04-06T11:14:12.148Z,9.83
2017-04-06T11:15:11.308Z,10.10
2017-04-06T11:16:11.209Z,9.63
2017-04-06T11:17:11.073Z,7.68
2017-04-06T11:18:10.200Z,4.87
2017-04-06T11:19:09.316Z,7.37
2017-04-06T11:20:08.431Z,4.73
2017-04-06T11:21:08.025Z,7.82
2017-04-06T11:22:07.144Z,7.70
2017-04-06T11:23:07.021Z,7.07
2017-04-06T11:24:06.198Z,6.10
2017-04-06T11:25:05.443Z,9.93
2017-04-06T11:26:04.602Z,4.47
2017-04-06T11:27:04.518Z,7.58
2017-04-06T11:28:04.496Z,8.20
2017-04-06T11:29:03.677Z,7.98
2017-04-06T11:30:03.149Z,6.52
2017-04-06T11:31:02.377Z,5.10
2017-04-06T11:32:01.834Z,5.02
2017-04-06T11:33:01.233Z,8.25
2017-04-06T11:34:00.381Z,6.62
2017-04-06T11:34:59.663Z,5.72
2017-04-06T11:35:58.894Z,8.23
2017-04-06T11:36:58.168Z,5.48
2017-04-06T11:37:57.373Z,6.83
2017-04-06T11:38:57.110Z,3.80
2017-04-06T11:39:56.785Z,3.65
2017-04-06T11:40:55.976Z,6.87
2017-04-06T11:41:55.196Z,9.90
2017-04-06T11:42:55.228Z,3.78
2017-04-06T11:43:54.452Z,4.70
2017-04-06T11:45:00.707Z,7.78
2017-04-06T11:46:00.456Z,3.65
2017-04-06T11:47:00.469Z,4.82
2017-04-06T11:47:59.736Z,7.12
2017-04-06T11:48:59.685Z,10.45
2017-04-06T11:49:58.891Z,6.35
2017-04-06T11:50:58.145Z,3.88
2017-04-06T11:51:57.433Z,8.02
2017-04-06T11:52:56.637Z,6.05
2017-04-06T11:53:56.241Z,5.78
2017-04-06T11:54:55.520Z,6.40
2017-04-06T11:55:54.721Z,7.33
2017-04-06T11:56:54.249Z,7.33
2017-04-06T11:57:53.444Z,5.60
2017-04-06T11:58:52.636Z,10.37
2017-04-06T11:59:51.825Z,5.72
2017-04-06T12:00:51.013Z,6.70
2017-04-06T12:01:50.217Z,6.65
2017-04-06T12:02:50.623Z,7.30
2017-04-06T12:03:50.894Z,4.98
2017-04-06T12:04:50.072Z,6.43
2017-04-06T12:05:49.235Z,6.45
2017-04-06T12:06:48.425Z,5.87
2017-04-06T12:07:47.633Z,9.02
2017-04-06T12:08:46.881Z,7.70
2017-04-06T12:09:46.837Z,4.77
2017-04-06T12:10:46.049Z,9.43
2017-04-06T12:11:45.255Z,4.92
2017-04-06T12:12:44.463Z,6.02
2017-04-06T12:13:43.652Z,8.43
2017-04-06T12:14:43.318Z,7.68
2017-04-06T12:15:42.489Z,5.60
2017-04-06T12:16:41.701Z,7.30
2017-04-06T12:17:40.885Z,6.85
2017-04-06T12:18:40.101Z,4.78
2017-04-06T12:19:46.837Z,6.05
2017-04-06T12:20:45.981Z,5.25
2017-04-06T12:21:45.137Z,7.25
2017-04-06T12:22:45.068Z,10.00
2017-04-06T12:23:44.246Z,5.33
2017-04-06T12:24:43.409Z,7.08
2017-04-06T12:25:43.346Z,10.80
2017-04-06T12:26:42.518Z,5.60
2017-04-06T12:27:41.678Z,4.35
2017-04-06T12:28:40.812Z,9.70
2017-04-06T12:29:39.981Z,9.00
2017-04-06T12:30:39.134Z,7.95
2017-04-06T12:31:38.732Z,6.90
2017-04-06T12:32:37.909Z,4.50
2017-04-06T12:33:37.058Z,8.77
2017-04-06T12:34:36.257Z,12.02
2017-04-06T12:35:35.421Z,6.80
2017-04-06T12:36:34.585Z,6.43
2017-04-06T12:37:34.883Z,4.02
2017-04-06T12:38:34.081Z,8.10
2017-04-06T12:39:34.001Z,7.43
2017-04-06T12:40:33.901Z,7.47
2017-04-06T12:41:33.833Z,5.67
2017-04-06T12:42:33.018Z,6.48
2017-04-06T12:43:32.253Z,4.38
2017-04-06T12:44:31.422Z,6.05
2017-04-06T12:45:30.572Z,4.93
2017-04-06T12:46:29.761Z,5.97
2017-04-06T12:47:28.897Z,6.58
2017-04-06T12:48:28.044Z,6.07
2017-04-06T12:49:27.216Z,6.37
2017-04-06T12:50:27.083Z,4.35